Time;durP1;ratioP1;P1;durP2;ratioP2;P2;SDS_P1;SDS_P2;PMS_P1;PMS_P2;Temp;Humidity;BMP_temperature;BMP_pressure;BME280_temperature;BME280_humidity;BME280_pressure;Samples;Min_cycle;Max_cycle;Signal;HPM_P1;HPM_P2
2024/01/06 00:00:13;;;;;;;13.30;8.77;;;;;;;7.77;82.79;98357.41;5051758;28;20059;-76
2024/01/06 00:02:39;;;;;;;12.25;8.02;;;;;;;7.76;82.83;98360.97;5052495;28;20071;-73
2024/01/06 00:05:06;;;;;;;13.18;8.30;;;;;;;7.75;82.93;98369.78;5051971;28;20083;-76
2024/01/06 00:07:33;;;;;;;13.00;8.30;;;;;;;7.73;83.00;98366.44;5052141;28;20052;-74
2024/01/06 00:09:59;;;;;;;11.35;7.45;;;;;;;7.73;83.00;98369.06;5051903;28;20521;-73
2024/01/06 00:12:26;;;;;;;11.32;7.80;;;;;;;7.71;83.14;98369.16;5051709;28;20051;-73
2024/01/06 00:14:52;;;;;;;12.15;7.85;;;;;;;7.71;83.06;98379.63;5051466;28;20128;-76
2024/01/06 00:17:19;;;;;;;12.05;7.68;;;;;;;7.71;82.93;98389.25;5051828;28;20481;-73
2024/01/06 00:19:50;;;;;;;9.38;6.88;;;;;;;7.69;82.96;98379.72;5033745;28;20132;-74
2024/01/06 00:22:18;;;;;;;8.90;6.53;;;;;;;7.67;82.68;98383.41;5032052;28;20080;-73
2024/01/06 00:24:44;;;;;;;9.15;6.22;;;;;;;7.66;82.87;98385.16;5045114;28;20053;-74
2024/01/06 00:27:11;;;;;;;7.97;5.97;;;;;;;7.64;82.86;98379.22;5051508;28;20053;-80
2024/01/06 00:29:38;;;;;;;7.97;5.88;;;;;;;7.63;82.69;98387.16;5051567;28;20056;-76
2024/01/06 00:32:05;;;;;;;7.75;5.82;;;;;;;7.62;82.64;98388.94;5052774;28;20140;-75
2024/01/06 00:37:04;;;;;;;7.78;5.80;;;;;;;7.59;82.30;98398.78;5267225;22;20120;-76
2024/01/06 00:39:31;;;;;;;8.20;5.63;;;;;;;7.57;82.64;98398.88;5078679;28;20147;-73
2024/01/06 00:41:57;;;;;;;8.23;5.80;;;;;;;7.55;82.54;98400.75;5057301;28;20109;-74
2024/01/06 00:44:24;;;;;;;7.75;5.90;;;;;;;7.53;82.79;98400.88;5092105;28;20159;-74
2024/01/06 00:46:50;;;;;;;6.82;5.20;;;;;;;7.53;82.35;98405.25;5091553;28;20040;-75
2024/01/06 00:49:17;;;;;;;6.28;5.03;;;;;;;7.52;82.64;98412.25;5091566;28;20485;-74
2024/01/06 00:51:44;;;;;;;8.35;5.22;;;;;;;7.51;82.85;98405.34;5091474;28;20101;-75
2024/01/06 00:54:11;;;;;;;7.05;5.30;;;;;;;7.51;82.96;98413.22;5074103;28;20051;-82
2024/01/06 00:56:37;;;;;;;7.25;5.53;;;;;;;7.51;82.98;98420.25;5073391;28;20055;-73
2024/01/06 00:59:04;;;;;;;6.35;4.85;;;;;;;7.51;82.82;98415.00;5091639;28;20102;-74
2024/01/06 01:01:31;;;;;;;6.72;5.20;;;;;;;7.51;82.74;98428.94;5073250;28;20062;-77
2024/01/06 01:03:58;;;;;;;6.40;5.38;;;;;;;7.50;82.39;98424.63;5073266;28;20139;-72
2024/01/06 01:06:25;;;;;;;7.75;5.95;;;;;;;7.50;82.30;98429.03;5090958;28;20054;-74
2024/01/06 01:08:51;;;;;;;8.48;6.57;;;;;;;7.47;82.24;98430.06;5091240;28;20044;-74
2024/01/06 01:11:19;;;;;;;9.85;6.60;;;;;;;7.45;82.25;98437.19;5090836;28;20051;-76
2024/01/06 01:13:46;;;;;;;9.52;6.90;;;;;;;7.43;82.00;98439.91;5091291;28;20081;-73
2024/01/06 01:16:12;;;;;;;9.90;7.78;;;;;;;7.41;81.96;98438.34;5090813;28;20056;-74
2024/01/06 01:18:39;;;;;;;10.95;8.25;;;;;;;7.40;82.09;98441.91;5091053;28;20588;-74
2024/01/06 01:21:06;;;;;;;10.98;8.30;;;;;;;7.39;82.16;98453.28;5090866;28;20044;-73
2024/01/06 01:23:34;;;;;;;16.00;8.52;;;;;;;7.38;82.46;98446.38;5073303;28;20508;-74
2024/01/06 01:26:00;;;;;;;25.92;9.05;;;;;;;7.37;82.32;98456.00;5090748;28;20510;-75
2024/01/06 01:28:27;;;;;;;15.10;8.75;;;;;;;7.37;82.31;98466.47;5090746;28;20131;-77
2024/01/06 01:30:54;;;;;;;22.70;9.98;;;;;;;7.37;82.22;98465.66;5090661;28;20058;-75
2024/01/06 01:33:20;;;;;;;25.98;9.60;;;;;;;7.36;81.85;98477.88;5073212;28;20087;-74
2024/01/06 01:35:47;;;;;;;13.55;9.52;;;;;;;7.35;82.03;98470.97;5090507;28;20143;-81
2024/01/06 01:38:15;;;;;;;33.80;10.20;;;;;;;7.34;82.07;98471.94;5090802;28;20087;-74
2024/01/06 01:40:42;;;;;;;13.23;9.45;;;;;;;7.32;82.37;98471.16;5090850;28;20044;-75
2024/01/06 01:43:21;;;;;;;12.32;9.30;;;;;;;7.28;81.86;98470.53;5090860;28;20048;-75
2024/01/06 01:45:52;;;;;;;22.13;9.45;;;;;;;7.31;81.86;98477.34;5090668;28;20048;-75
2024/01/06 01:48:20;;;;;;;52.05;10.38;;;;;;;7.31;82.31;98477.34;5090742;28;20123;-74
2024/01/06 01:50:48;;;;;;;58.08;10.45;;;;;;;7.30;82.07;98480.91;5090777;28;20044;-75
2024/01/06 01:53:15;;;;;;;75.30;10.02;;;;;;;7.29;82.17;98487.91;5090592;28;20046;-76
2024/01/06 01:55:43;;;;;;;82.32;12.00;;;;;;;7.28;81.58;98493.25;5090437;28;20084;-74
2024/01/06 01:58:13;;;;;;;18.27;8.60;;;;;;;7.27;81.72;98499.41;5091146;28;20078;-75
2024/01/06 02:00:40;;;;;;;20.27;8.60;;;;;;;7.24;81.63;98494.38;5094248;28;20047;-74
2024/01/06 02:03:08;;;;;;;13.18;8.60;;;;;;;7.22;81.60;98501.50;5076683;28;20093;-75
2024/01/06 02:05:35;;;;;;;13.55;8.68;;;;;;;7.19;81.72;98499.06;5094569;28;20056;-79
2024/01/06 02:08:02;;;;;;;11.70;8.65;;;;;;;7.16;81.69;98503.56;5095218;28;20555;-75
2024/01/06 02:10:29;;;;;;;12.20;8.82;;;;;;;7.14;81.54;98508.03;5094646;28;20084;-75
2024/01/06 02:12:55;;;;;;;11.45;8.52;;;;;;;7.13;81.81;98505.53;5076503;28;20056;-75
2024/01/06 02:15:22;;;;;;;11.05;7.88;;;;;;;7.11;81.82;98505.63;5101178;22;20060;-74
2024/01/06 02:17:49;;;;;;;11.15;8.38;;;;;;;7.11;81.58;98510.03;5054684;28;20088;-75
2024/01/06 02:20:30;;;;;;;11.93;8.85;;;;;;;7.06;81.30;98514.72;5170048;22;20055;-74
2024/01/06 02:23:21;;;;;;;10.88;8.20;;;;;;;7.10;81.65;98518.81;5075377;22;20176;-74
2024/01/06 02:25:48;;;;;;;11.45;8.45;;;;;;;7.09;81.70;98522.34;5054839;28;20049;-74
2024/01/06 02:28:15;;;;;;;11.63;8.40;;;;;;;7.06;81.11;98520.78;5054559;28;20051;-74
2024/01/06 02:30:42;;;;;;;10.52;7.40;;;;;;;7.02;81.22;98525.38;5036721;28;20420;-75
2024/01/06 02:33:09;;;;;;;11.88;8.07;;;;;;;7.01;81.42;98523.69;5054191;28;20051;-76
2024/01/06 02:35:36;;;;;;;10.10;7.40;;;;;;;6.99;81.76;98519.50;5053893;28;20103;-76
2024/01/06 02:38:02;;;;;;;13.38;7.88;;;;;;;6.98;81.57;98528.25;5035481;28;20489;-76
2024/01/06 02:40:29;;;;;;;15.13;8.68;;;;;;;6.96;81.14;98533.59;5053351;28;20048;-74
2024/01/06 02:42:55;;;;;;;17.15;9.50;;;;;;;6.95;81.09;98531.09;5053462;28;20195;-79
2024/01/06 02:45:22;;;;;;;31.00;10.40;;;;;;;6.91;81.19;98541.72;5053500;28;20088;-75
2024/01/06 02:47:48;;;;;;;11.65;8.65;;;;;;;6.89;81.05;98540.97;5053538;28;20135;-74
2024/01/06 02:50:15;;;;;;;13.50;9.50;;;;;;;6.87;81.04;98548.06;5052755;28;20049;-74
2024/01/06 02:52:43;;;;;;;11.68;8.88;;;;;;;6.85;81.12;98544.72;5053077;28;20090;-78
2024/01/06 02:55:09;;;;;;;14.80;9.73;;;;;;;6.85;81.48;98551.72;5053248;28;20041;-77
2024/01/06 02:57:37;;;;;;;28.42;10.30;;;;;;;6.83;81.18;98554.44;5053181;28;20556;-78
2024/01/06 03:00:04;;;;;;;125.10;14.45;;;;;;;6.82;81.37;98559.75;5052571;28;20045;-74
2024/01/06 03:02:31;;;;;;;243.18;19.83;;;;;;;6.80;81.00;98562.47;5053045;28;20079;-73
2024/01/06 03:04:57;;;;;;;129.68;14.95;;;;;;;6.78;81.16;98569.56;5053155;28;20139;-75
2024/01/06 03:07:24;;;;;;;131.25;15.68;;;;;;;6.76;81.08;98576.66;5035154;28;20449;-73
2024/01/06 03:09:51;;;;;;;74.88;13.23;;;;;;;6.73;80.94;98576.84;5033727;28;20124;-74
2024/01/06 03:12:17;;;;;;;19.25;12.05;;;;;;;6.72;81.09;98575.16;5052616;28;20068;-78
2024/01/06 03:14:44;;;;;;;17.90;11.50;;;;;;;6.71;81.47;98581.31;5035333;28;20140;-74
2024/01/06 03:17:10;;;;;;;15.68;11.32;;;;;;;6.70;81.34;98583.13;5052724;28;20081;-74
2024/01/06 03:19:38;;;;;;;43.38;11.98;;;;;;;6.70;81.52;98590.09;5052349;28;20048;-73
2024/01/06 03:22:05;;;;;;;13.82;10.18;;;;;;;6.68;81.06;98584.97;5052730;28;20048;-73
2024/01/06 03:24:32;;;;;;;16.75;9.75;;;;;;;6.67;81.17;98592.91;5052883;28;20072;-74
2024/01/06 03:26:58;;;;;;;13.85;8.80;;;;;;;6.64;81.01;98592.16;5052709;28;20103;-76
2024/01/06 03:29:25;;;;;;;11.15;8.00;;;;;;;6.62;80.77;98595.81;5052357;28;20049;-75
2024/01/06 03:31:52;;;;;;;12.60;7.75;;;;;;;6.58;80.68;98597.75;5034362;28;20128;-73
2024/01/06 03:34:18;;;;;;;12.45;7.20;;;;;;;6.56;80.43;98610.06;5052427;28;20734;-81
2024/01/06 03:36:45;;;;;;;10.07;6.75;;;;;;;6.53;80.92;98609.44;5052870;28;20044;-74
2024/01/06 03:39:13;;;;;;;10.35;6.85;;;;;;;6.50;81.17;98607.81;5052707;28;20049;-74
2024/01/06 03:41:40;;;;;;;10.00;7.03;;;;;;;6.46;80.62;98616.75;5051838;28;20049;-75
2024/01/06 03:44:06;;;;;;;10.10;6.30;;;;;;;6.43;80.97;98623.00;5052705;28;20049;-74
2024/01/06 03:46:34;;;;;;;8.15;5.78;;;;;;;6.41;80.63;98624.03;5052239;28;20053;-73
2024/01/06 03:49:01;;;;;;;8.02;5.60;;;;;;;6.39;81.03;98617.13;5052099;28;20473;-77
2024/01/06 03:51:28;;;;;;;7.88;5.82;;;;;;;6.38;81.11;98625.91;5051847;28;20424;-74
2024/01/06 03:53:54;;;;;;;6.85;5.32;;;;;;;6.38;81.02;98628.53;5052389;28;20057;-77
2024/01/06 03:56:21;;;;;;;7.03;5.15;;;;;;;6.36;81.31;98624.31;5052216;28;20049;-74
2024/01/06 03:58:48;;;;;;;7.90;5.70;;;;;;;6.35;81.46;98628.69;5051954;28;20136;-74
2024/01/06 04:01:14;;;;;;;9.43;6.47;;;;;;;6.35;81.69;98636.53;5051445;28;20045;-75
2024/01/06 04:03:42;;;;;;;8.48;5.85;;;;;;;6.38;81.89;98630.28;5051915;28;20099;-74
2024/01/06 04:06:09;;;;;;;8.57;5.95;;;;;;;6.37;81.61;98632.06;5052044;28;20412;-75
2024/01/06 04:08:36;;;;;;;9.25;6.78;;;;;;;6.38;81.27;98635.50;5051814;28;20045;-75
2024/01/06 04:11:03;;;;;;;9.73;6.72;;;;;;;6.38;81.02;98641.59;5051601;28;20135;-75
2024/01/06 04:13:30;;;;;;;9.68;7.00;;;;;;;6.37;80.77;98639.91;5033485;28;20128;-74
2024/01/06 04:15:57;;;;;;;10.88;7.70;;;;;;;6.36;81.04;98651.28;5051750;28;20055;-75
2024/01/06 04:18:23;;;;;;;13.10;7.35;;;;;;;6.34;81.20;98647.06;5051973;28;20051;-73
2024/01/06 04:20:50;;;;;;;13.88;7.70;;;;;;;6.33;80.98;98648.88;5033685;28;20045;-75
2024/01/06 04:23:17;;;;;;;24.65;8.65;;;;;;;6.31;81.42;98650.72;5051124;28;20049;-75
2024/01/06 04:25:43;;;;;;;52.10;9.77;;;;;;;6.31;80.71;98655.13;5051318;28;20045;-77
2024/01/06 04:28:10;;;;;;;25.55;8.60;;;;;;;6.30;80.78;98654.25;5051747;28;20457;-76
2024/01/06 04:30:36;;;;;;;25.65;8.45;;;;;;;6.29;81.03;98663.03;5051234;28;20147;-76
2024/01/06 04:33:03;;;;;;;44.90;9.32;;;;;;;6.27;80.91;98667.50;5079062;22;20048;-75
2024/01/06 04:35:30;;;;;;;84.38;11.30;;;;;;;6.26;80.97;98673.66;5070828;28;20489;-76
2024/01/06 04:37:56;;;;;;;179.63;13.23;;;;;;;6.25;80.92;98677.22;5053494;28;20049;-75
2024/01/06 04:40:23;;;;;;;23.80;7.97;;;;;;;6.24;80.48;98685.94;5071451;28;20044;-76
2024/01/06 04:42:49;;;;;;;21.70;8.15;;;;;;;6.22;80.41;98685.22;5070574;28;20131;-77
2024/01/06 04:45:19;;;;;;;12.02;7.55;;;;;;;6.19;80.44;98680.16;5070403;28;20591;-75
2024/01/06 04:47:45;;;;;;;37.90;8.82;;;;;;;6.17;80.50;98687.25;5053395;28;20060;-74
2024/01/06 04:50:12;;;;;;;54.13;9.40;;;;;;;6.15;80.67;98691.69;5070922;28;20696;-74
2024/01/06 04:52:39;;;;;;;15.38;7.28;;;;;;;6.12;81.22;98690.97;5070970;28;20041;-78
2024/01/06 04:55:05;;;;;;;15.60;6.72;;;;;;;6.12;81.43;98701.41;5070721;28;20052;-74
2024/01/06 04:57:32;;;;;;;26.05;7.97;;;;;;;6.13;81.72;98694.38;5070727;28;20139;-75
2024/01/06 04:59:59;;;;;;;11.30;7.20;;;;;;;6.15;81.54;98700.38;5070999;28;20063;-77
2024/01/06 05:02:26;;;;;;;8.20;6.55;;;;;;;6.17;81.26;98700.31;5071106;28;20118;-76
2024/01/06 05:04:52;;;;;;;13.30;7.50;;;;;;;6.16;81.55;98701.25;5070689;28;20056;-75
2024/01/06 05:07:19;;;;;;;9.65;6.43;;;;;;;6.16;81.15;98698.63;5070688;28;20048;-74
2024/01/06 05:09:45;;;;;;;8.85;6.68;;;;;;;6.16;80.65;98706.47;5070680;28;20095;-74
2024/01/06 05:12:12;;;;;;;15.38;7.50;;;;;;;6.15;80.76;98704.75;5070642;28;20519;-74
2024/01/06 05:14:39;;;;;;;9.40;7.00;;;;;;;6.14;80.98;98709.16;5070387;28;20467;-75
2024/01/06 05:17:05;;;;;;;12.65;6.72;;;;;;;6.15;81.00;98708.22;5052849;28;20098;-76
2024/01/06 05:19:32;;;;;;;28.63;6.95;;;;;;;6.15;81.03;98712.59;5070687;28;20136;-74
2024/01/06 05:21:59;;;;;;;10.20;6.75;;;;;;;6.16;81.06;98724.75;5090013;23;20567;-74
2024/01/06 05:24:26;;;;;;;23.88;6.00;;;;;;;6.15;80.59;98725.66;5070426;28;20448;-76
2024/01/06 05:26:52;;;;;;;8.10;5.78;;;;;;;6.12;80.49;98727.53;5069893;28;20047;-74
2024/01/06 05:29:19;;;;;;;7.95;6.07;;;;;;;6.11;80.43;98735.47;5070781;28;20056;-74
2024/01/06 05:31:47;;;;;;;8.80;6.10;;;;;;;6.09;80.53;98732.09;5070536;28;20045;-78
2024/01/06 05:34:15;;;;;;;7.15;5.38;;;;;;;6.05;80.58;98741.84;5069918;28;20471;-74
2024/01/06 05:36:42;;;;;;;13.80;6.63;;;;;;;6.03;80.46;98741.09;5069894;28;20043;-78
2024/01/06 05:39:09;;;;;;;10.70;6.55;;;;;;;6.02;80.35;98741.97;5070552;28;20053;-74
2024/01/06 05:41:40;;;;;;;10.80;7.03;;;;;;;6.00;80.50;98741.25;5070125;28;20052;-76
2024/01/06 05:44:07;;;;;;;10.05;6.68;;;;;;;5.99;80.75;98745.59;5070494;28;20144;-75
2024/01/06 05:46:34;;;;;;;10.27;6.50;;;;;;;5.99;80.68;98744.78;5070116;28;20416;-74
2024/01/06 05:49:01;;;;;;;9.35;6.80;;;;;;;5.99;80.57;98748.22;5070293;28;20143;-74
2024/01/06 05:51:27;;;;;;;8.15;6.43;;;;;;;5.98;81.11;98745.72;5070104;28;20063;-74
2024/01/06 05:53:54;;;;;;;11.32;7.03;;;;;;;5.98;80.76;98753.56;5070326;28;20075;-75
2024/01/06 05:56:25;;;;;;;9.48;6.63;;;;;;;5.96;80.28;98753.63;5070121;28;20047;-74
2024/01/06 05:58:53;;;;;;;8.55;6.38;;;;;;;5.98;80.78;98758.78;5069811;28;20135;-77
2024/01/06 06:01:20;;;;;;;7.88;6.38;;;;;;;5.98;80.86;98758.78;5052370;28;20095;-76
2024/01/06 06:03:50;;;;;;;13.57;7.68;;;;;;;5.96;80.22;98758.00;5070132;28;20135;-75
2024/01/06 06:06:18;;;;;;;9.80;7.40;;;;;;;5.96;80.20;98765.84;5052315;28;20060;-77
2024/01/06 06:08:46;;;;;;;9.95;7.70;;;;;;;5.94;80.54;98768.53;5052178;28;20091;-75
2024/01/06 06:11:12;;;;;;;12.00;7.75;;;;;;;5.94;80.89;98775.53;5086196;22;20035;-81
2024/01/06 06:13:40;;;;;;;11.73;8.43;;;;;;;5.93;80.85;98779.06;5068380;28;20155;-82
2024/01/06 06:16:09;;;;;;;12.45;7.65;;;;;;;5.91;80.24;98786.97;5068446;28;20080;-80
2024/01/06 06:18:35;;;;;;;11.85;8.10;;;;;;;5.91;80.19;98796.59;5069297;28;20045;-83
2024/01/06 06:21:03;;;;;;;9.95;7.45;;;;;;;5.90;80.26;98794.91;5069693;28;20056;-83
2024/01/06 06:23:30;;;;;;;10.07;7.63;;;;;;;5.87;80.47;98798.53;5052195;28;20048;-84
2024/01/06 06:25:57;;;;;;;9.85;6.97;;;;;;;5.86;80.56;98802.03;5069887;28;20135;-86
2024/01/06 06:28:24;;;;;;;9.90;6.55;;;;;;;5.85;80.32;98808.19;5069506;28;20131;-82
2024/01/06 06:30:51;;;;;;;7.40;5.90;;;;;;;5.83;80.38;98813.50;5069696;28;20045;-85
2024/01/06 06:33:17;;;;;;;8.70;6.22;;;;;;;5.81;80.36;98812.75;5069797;28;20051;-84
2024/01/06 06:35:44;;;;;;;10.52;6.32;;;;;;;5.79;80.25;98829.44;5069999;28;20056;-80
2024/01/06 06:38:11;;;;;;;7.78;5.80;;;;;;;5.77;80.56;98834.72;5069729;28;20088;-86
2024/01/06 06:40:38;;;;;;;8.90;6.20;;;;;;;5.76;80.64;98826.97;5051722;28;20060;-86
2024/01/06 06:43:05;;;;;;;7.30;5.70;;;;;;;5.75;80.67;98833.94;5051988;28;20088;-82
2024/01/06 06:45:31;;;;;;;8.38;6.45;;;;;;;5.74;80.45;98837.50;5072394;28;20080;-84
2024/01/06 06:47:58;;;;;;;7.63;6.00;;;;;;;5.73;80.20;98843.66;5072800;28;20056;-86
2024/01/06 06:50:25;;;;;;;7.68;5.75;;;;;;;5.71;80.25;98858.53;5072826;28;20416;-86
2024/01/06 06:52:52;;;;;;;7.25;5.90;;;;;;;5.69;80.09;98853.38;5073247;28;20049;-86
2024/01/06 06:55:19;;;;;;;10.50;6.72;;;;;;;5.68;80.25;98866.53;5073345;28;20071;-87
2024/01/06 06:57:45;;;;;;;9.90;6.13;;;;;;;5.68;80.52;98862.16;5055169;28;20060;-83
2024/01/06 07:00:12;;;;;;;9.90;6.72;;;;;;;5.68;80.44;98871.75;5072135;28;20040;-87
2024/01/06 07:02:39;;;;;;;9.95;6.80;;;;;;;5.67;80.20;98867.44;5072804;28;20503;-85
2024/01/06 07:05:06;;;;;;;8.85;6.65;;;;;;;5.66;80.20;98879.69;5073210;28;20059;-82
2024/01/06 07:07:34;;;;;;;10.52;6.13;;;;;;;5.65;79.86;98883.22;5073059;28;20135;-83
2024/01/06 07:10:02;;;;;;;8.63;5.85;;;;;;;5.63;79.80;98892.03;5071971;28;20083;-86
2024/01/06 07:12:28;;;;;;;10.57;6.45;;;;;;;5.59;79.94;98893.94;5072728;28;20049;-87
2024/01/06 07:14:55;;;;;;;18.63;6.63;;;;;;;5.58;80.16;98893.09;5072762;28;20471;-86
2024/01/06 07:17:21;;;;;;;21.60;7.03;;;;;;;5.55;80.05;98893.28;5072585;28;20061;-83
2024/01/06 07:19:48;;;;;;;13.77;6.55;;;;;;;5.55;80.21;98902.84;5072295;28;20044;-86
2024/01/06 07:22:18;;;;;;;19.73;6.38;;;;;;;5.54;80.50;98909.88;5072710;28;20051;-86
2024/01/06 07:24:45;;;;;;;8.48;5.97;;;;;;;5.52;80.44;98908.22;5072590;28;20060;-84
2024/01/06 07:27:11;;;;;;;18.10;7.22;;;;;;;5.52;80.72;98914.28;5072563;28;20550;-86
2024/01/06 07:29:38;;;;;;;9.52;6.65;;;;;;;5.52;80.47;98922.13;5054175;28;20048;-83
2024/01/06 07:32:06;;;;;;;10.57;7.28;;;;;;;5.53;80.80;98918.59;5072348;28;20124;-87
2024/01/06 07:34:33;;;;;;;11.88;6.75;;;;;;;5.55;81.02;98926.34;5072892;28;20056;-82
2024/01/06 07:37:00;;;;;;;9.18;6.75;;;;;;;5.56;80.79;98925.41;5072237;28;20128;-84
2024/01/06 07:39:26;;;;;;;8.82;6.30;;;;;;;5.56;80.63;98928.88;5072127;28;20406;-87
2024/01/06 07:41:53;;;;;;;10.27;7.00;;;;;;;5.55;80.63;98935.03;5071922;28;20067;-81
2024/01/06 07:44:24;;;;;;;11.02;6.68;;;;;;;5.55;80.36;98940.25;5072158;28;20060;-86
2024/01/06 07:46:51;;;;;;;9.85;6.43;;;;;;;5.54;80.28;98941.19;5072376;28;20094;-86
2024/01/06 07:49:18;;;;;;;9.38;6.60;;;;;;;5.55;80.67;98952.47;5072337;28;20098;-85
2024/01/06 07:51:45;;;;;;;9.63;6.32;;;;;;;5.54;80.98;98945.56;5071354;28;20485;-82
2024/01/06 07:54:12;;;;;;;10.45;6.63;;;;;;;5.54;80.87;98942.94;5054207;28;20052;-83
2024/01/06 07:56:39;;;;;;;8.85;6.40;;;;;;;5.55;80.90;98949.84;5071373;28;20052;-83
2024/01/06 07:59:05;;;;;;;7.85;5.95;;;;;;;5.56;81.04;98956.75;5054069;28;20127;-84
2024/01/06 08:01:32;;;;;;;7.65;5.50;;;;;;;5.56;80.85;98959.34;5071316;28;20048;-83
2024/01/06 08:03:59;;;;;;;7.53;5.85;;;;;;;5.56;80.83;98961.97;5071933;28;20052;-83
2024/01/06 08:06:26;;;;;;;9.02;6.07;;;;;;;5.56;80.74;98965.44;5071723;28;20052;-84
2024/01/06 08:08:53;;;;;;;6.85;5.10;;;;;;;5.56;80.38;98972.41;5071807;28;20056;-83
2024/01/06 08:11:21;;;;;;;7.03;5.18;;;;;;;5.55;80.54;98974.19;5053188;28;20496;-80
2024/01/06 08:13:47;;;;;;;6.70;4.45;;;;;;;5.55;80.40;98984.63;5070860;28;20052;-86
2024/01/06 08:16:14;;;;;;;6.90;5.20;;;;;;;5.54;80.52;98984.72;5071663;28;20053;-85
2024/01/06 08:18:40;;;;;;;7.90;5.60;;;;;;;5.52;80.38;98989.16;5071645;28;20763;-86
2024/01/06 08:21:07;;;;;;;5.82;4.65;;;;;;;5.50;79.90;98993.59;5071359;28;20049;-84
2024/01/06 08:23:33;;;;;;;6.13;4.57;;;;;;;5.48;80.26;98999.75;5053668;28;20090;-85
2024/01/06 08:26:00;;;;;;;7.40;5.30;;;;;;;5.46;80.70;99000.75;5070806;28;20076;-83
2024/01/06 08:28:27;;;;;;;6.47;4.82;;;;;;;5.46;80.39;99004.19;5071365;28;20489;-84
2024/01/06 08:30:54;;;;;;;6.75;4.78;;;;;;;5.44;80.59;99000.81;5053573;28;20107;-85
2024/01/06 08:33:20;;;;;;;6.53;5.05;;;;;;;5.43;80.61;98998.28;5071395;28;20052;-82
2024/01/06 08:35:48;;;;;;;6.45;5.00;;;;;;;5.43;81.04;98999.13;5070547;28;20052;-81
2024/01/06 08:38:15;;;;;;;6.80;4.82;;;;;;;5.43;80.88;99003.50;5071147;28;20127;-84
2024/01/06 08:40:41;;;;;;;7.65;5.53;;;;;;;5.43;80.87;99006.97;5070891;28;20092;-81
2024/01/06 08:43:09;;;;;;;8.00;5.20;;;;;;;5.44;80.81;99013.00;5067768;28;20072;-84
2024/01/06 08:45:35;;;;;;;7.28;5.25;;;;;;;5.44;80.96;99021.69;5057546;28;20064;-85
2024/01/06 08:48:02;;;;;;;8.48;6.25;;;;;;;5.44;80.67;99018.22;5070903;28;20129;-84
2024/01/06 08:50:29;;;;;;;8.80;6.20;;;;;;;5.45;80.93;99017.31;5051475;28;20497;-84
2024/01/06 08:52:55;;;;;;;7.70;5.85;;;;;;;5.44;81.10;99020.84;5040819;28;20128;-84
2024/01/06 08:55:22;;;;;;;7.85;6.40;;;;;;;5.45;81.37;99027.75;5057328;28;20554;-81
2024/01/06 08:57:48;;;;;;;8.23;6.13;;;;;;;5.46;81.24;99035.50;5069655;28;20045;-85
2024/01/06 09:00:15;;;;;;;8.68;6.32;;;;;;;5.48;81.43;99038.06;5052527;28;20040;-83
2024/01/06 09:02:42;;;;;;;13.48;6.32;;;;;;;5.49;81.38;99047.56;5070347;28;20480;-81
2024/01/06 09:05:09;;;;;;;17.73;6.85;;;;;;;5.50;81.58;99046.69;5070705;28;20052;-84
2024/01/06 09:07:35;;;;;;;15.63;7.75;;;;;;;5.53;81.49;99051.72;5069067;28;20045;-84
2024/01/06 09:10:02;;;;;;;12.85;8.05;;;;;;;5.55;81.26;99060.34;5070624;28;20048;-85
2024/01/06 09:12:29;;;;;;;10.77;7.68;;;;;;;5.55;81.40;99068.19;5070092;28;20052;-84
2024/01/06 09:14:56;;;;;;;10.93;7.93;;;;;;;5.56;81.28;99072.47;5070043;28;20083;-85
2024/01/06 09:17:22;;;;;;;11.32;7.82;;;;;;;5.57;80.93;99081.16;5069480;28;20040;-85
2024/01/06 09:19:49;;;;;;;16.73;9.00;;;;;;;5.57;81.15;99082.00;5069392;28;20048;-85
2024/01/06 09:22:16;;;;;;;22.60;9.65;;;;;;;5.57;80.79;99083.78;5051805;28;20048;-83
2024/01/06 09:24:42;;;;;;;13.35;9.02;;;;;;;5.56;81.20;99084.66;5069899;28;20144;-82
2024/01/06 09:27:09;;;;;;;16.90;9.27;;;;;;;5.56;80.94;99089.91;5069047;28;20071;-84
2024/01/06 09:29:35;;;;;;;15.27;9.07;;;;;;;5.55;80.88;99089.06;5069229;28;20489;-85
2024/01/06 09:32:02;;;;;;;13.55;9.55;;;;;;;5.55;80.92;99089.06;5069554;28;20049;-85
2024/01/06 09:34:28;;;;;;;19.55;9.00;;;;;;;5.55;81.14;99102.13;5069658;28;20074;-82
2024/01/06 09:36:55;;;;;;;15.15;8.68;;;;;;;5.56;80.97;99105.56;5069247;28;20048;-80
2024/01/06 09:39:22;;;;;;;16.42;9.50;;;;;;;5.55;81.21;99104.72;5051394;28;20048;-83
2024/01/06 09:41:48;;;;;;;45.47;10.00;;;;;;;5.56;80.96;99106.41;5051782;28;20113;-86
2024/01/06 09:44:15;;;;;;;16.77;9.05;;;;;;;5.55;80.96;99115.16;5069410;28;20440;-82
2024/01/06 09:46:43;;;;;;;15.07;8.48;;;;;;;5.56;80.73;99111.63;5069465;28;20048;-86
2024/01/06 09:49:10;;;;;;;50.03;10.30;;;;;;;5.55;81.25;99120.38;5068038;28;20504;-84
2024/01/06 09:51:39;;;;;;;35.38;11.38;;;;;;;5.53;80.81;99130.03;5066071;28;20053;-86
2024/01/06 09:54:11;;;;;;;52.22;11.52;;;;;;;5.52;80.76;99128.34;5069407;28;20090;-83
2024/01/06 09:56:39;;;;;;;15.50;7.85;;;;;;;5.53;81.03;99137.88;5069437;28;20063;-85
2024/01/06 09:59:05;;;;;;;82.75;13.27;;;;;;;5.52;80.79;99138.81;5068389;28;20052;-81
2024/01/06 10:01:32;;;;;;;111.25;13.57;;;;;;;5.52;80.99;99143.16;5068824;28;20048;-85
2024/01/06 10:03:58;;;;;;;34.55;10.93;;;;;;;5.50;80.71;99138.03;5069309;28;20132;-84
2024/01/06 10:06:25;;;;;;;83.35;12.00;;;;;;;5.48;80.81;99138.09;5069368;28;20051;-85
2024/01/06 10:08:53;;;;;;;59.00;11.18;;;;;;;5.46;80.76;99137.31;5068620;28;20073;-84
2024/01/06 10:11:22;;;;;;;16.20;10.43;;;;;;;5.46;80.87;99144.31;5007246;28;1250708;-84
2024/01/06 10:13:50;;;;;;;21.13;10.07;;;;;;;5.47;81.34;99144.22;5070099;28;20416;-82
2024/01/06 10:16:18;;;;;;;22.90;10.65;;;;;;;5.48;81.28;99147.69;5070048;28;20567;-83
2024/01/06 10:18:45;;;;;;;69.85;12.73;;;;;;;5.48;81.47;99151.16;5069926;28;20073;-86
2024/01/06 10:21:17;;;;;;;32.03;11.13;;;;;;;5.49;81.58;99154.59;5073350;28;20052;-84
2024/01/06 10:23:45;;;;;;;45.92;10.85;;;;;;;5.52;81.72;99161.44;5055965;28;20052;-85
2024/01/06 10:26:13;;;;;;;63.65;11.32;;;;;;;5.54;81.61;99165.69;5073519;28;20056;-83
2024/01/06 10:28:41;;;;;;;19.83;9.52;;;;;;;5.56;81.92;99166.47;5073337;28;20086;-84
2024/01/06 10:31:08;;;;;;;44.10;12.13;;;;;;;5.58;82.25;99169.84;5073014;28;20138;-78
2024/01/06 10:33:35;;;;;;;25.83;10.77;;;;;;;5.61;81.84;99180.16;5073968;28;20048;-84
2024/01/06 10:36:04;;;;;;;15.90;9.25;;;;;;;5.63;81.70;99184.44;5073624;28;20080;-85
2024/01/06 10:38:30;;;;;;;52.60;11.57;;;;;;;5.64;81.59;99181.75;5073341;28;20584;-83
2024/01/06 10:41:06;;;;;;;70.85;11.73;;;;;;;5.66;81.46;99181.69;5072779;28;20047;-84
2024/01/06 10:43:40;;;;;;;34.17;10.60;;;;;;;5.67;81.44;99181.63;5073487;28;20102;-83
2024/01/06 10:46:10;;;;;;;84.10;10.95;;;;;;;5.68;81.38;99182.50;5073558;28;20075;-83
2024/01/06 10:48:42;;;;;;;35.03;8.93;;;;;;;5.68;81.06;99179.88;5073089;28;20048;-86
2024/01/06 10:51:10;;;;;;;31.15;9.38;;;;;;;5.68;81.14;99193.75;5072536;28;20060;-82
2024/01/06 10:53:38;;;;;;;20.75;8.80;;;;;;;5.69;81.15;99192.00;5072921;28;20089;-86
2024/01/06 10:56:10;;;;;;;35.08;9.10;;;;;;;5.68;81.20;99190.31;5055097;28;20048;-84
2024/01/06 10:58:42;;;;;;;10.45;7.82;;;;;;;5.67;80.88;99191.22;5073215;28;20080;-86
2024/01/06 11:01:09;;;;;;;15.15;9.00;;;;;;;5.67;81.25;99199.06;5055107;28;20469;-79
2024/01/06 11:03:38;;;;;;;11.00;8.20;;;;;;;5.67;81.48;99193.84;5072903;28;20091;-90
2024/01/06 11:06:11;;;;;;;15.55;7.80;;;;;;;5.67;81.30;99199.06;5072955;28;20452;-81
2024/01/06 11:08:49;;;;;;;18.27;7.90;;;;;;;5.67;81.16;99206.88;5055412;28;20057;-82
2024/01/06 11:11:20;;;;;;;17.00;7.93;;;;;;;5.70;81.42;99204.16;5072065;28;20118;-82
2024/01/06 11:13:47;;;;;;;14.15;7.50;;;;;;;5.73;81.27;99204.00;5072783;28;20453;-81
2024/01/06 11:16:36;;;;;;;12.70;7.18;;;;;;;5.69;80.82;99202.47;5072608;28;20497;-83
2024/01/06 11:19:35;;;;;;;10.00;6.78;;;;;;;5.70;80.55;99199.78;5072482;28;20049;-83
2024/01/06 11:22:31;;;;;;;15.57;7.15;;;;;;;5.74;80.77;99205.69;5071665;28;20560;-85
2024/01/06 11:25:07;;;;;;;20.67;7.30;;;;;;;5.77;80.70;99202.94;5072543;28;20078;-83
2024/01/06 11:27:36;;;;;;;22.73;8.18;;;;;;;5.79;81.35;99203.72;5054453;28;20500;-80
2024/01/06 11:30:06;;;;;;;21.13;8.63;;;;;;;5.80;81.39;99200.19;5054250;28;20455;-84
2024/01/06 11:32:46;;;;;;;29.85;9.10;;;;;;;5.78;80.70;99204.66;5071331;28;20146;-83
2024/01/06 11:35:15;;;;;;;115.55;13.23;;;;;;;5.80;80.78;99208.00;5072617;28;20051;-83
2024/01/06 11:37:41;;;;;;;135.05;12.38;;;;;;;5.78;80.58;99199.41;5072213;28;20056;-83